sensor_id;sensor_type;location;lat;lon;timestamp;temperature;humidity
18807;DHT22;9531;52.030;4.380;2023-02-28T00:00:55;2.30;99.90
18807;DHT22;9531;52.030;4.380;2023-02-28T00:03:23;1.30;99.90
18807;DHT22;9531;52.030;4.380;2023-02-28T00:05:50;2.40;99.90
18807;DHT22;9531;52.030;4.380;2023-02-28T00:08:17;3.60;99.90
18807;DHT22;9531;52.030;4.380;2023-02-28T00:10:45;2.50;99.90
18807;DHT22;9531;52.030;4.380;2023-02-28T00:13:18;4.00;99.90
18807;DHT22;9531;52.030;4.380;2023-02-28T00:15:45;1.80;99.90
18807;DHT22;9531;52.030;4.380;2023-02-28T00:18:12;2.10;99.90
18807;DHT22;9531;52.030;4.380;2023-02-28T00:20:39;2.60;99.90
18807;DHT22;9531;52.030;4.380;2023-02-28T00:23:06;2.00;99.90
18807;DHT22;9531;52.030;4.380;2023-02-28T00:25:33;4.00;99.90
18807;DHT22;9531;52.030;4.380;2023-02-28T00:28:01;1.30;99.90
18807;DHT22;9531;52.030;4.380;2023-02-28T00:30:29;0.70;99.90
18807;DHT22;9531;52.030;4.380;2023-02-28T00:32:57;0.00;99.90
18807;DHT22;9531;52.030;4.380;2023-02-28T00:35:24;2.00;99.90
18807;DHT22;9531;52.030;4.380;2023-02-28T00:37:51;-0.10;99.90
18807;DHT22;9531;52.030;4.380;2023-02-28T00:40:19;1.60;99.90
18807;DHT22;9531;52.030;4.380;2023-02-28T00:42:47;4.20;99.90
18807;DHT22;9531;52.030;4.380;2023-02-28T00:45:17;1.10;99.90
18807;DHT22;9531;52.030;4.380;2023-02-28T00:47:50;4.20;99.90
18807;DHT22;9531;52.030;4.380;2023-02-28T00:50:18;2.30;99.90
18807;DHT22;9531;52.030;4.380;2023-02-28T00:52:45;2.20;99.90
18807;DHT22;9531;52.030;4.380;2023-02-28T00:55:12;0.00;99.90
18807;DHT22;9531;52.030;4.380;2023-02-28T00:57:39;2.30;99.90
18807;DHT22;9531;52.030;4.380;2023-02-28T01:00:08;0.80;99.90
18807;DHT22;9531;52.030;4.380;2023-02-28T01:02:37;1.90;99.90
18807;DHT22;9531;52.030;4.380;2023-02-28T01:05:04;3.90;99.90
18807;DHT22;9531;52.030;4.380;2023-02-28T01:07:31;4.20;99.90
18807;DHT22;9531;52.030;4.380;2023-02-28T01:09:58;3.00;99.90
18807;DHT22;9531;52.030;4.380;2023-02-28T01:12:25;0.00;99.90
18807;DHT22;9531;52.030;4.380;2023-02-28T01:14:52;1.20;99.90
18807;DHT22;9531;52.030;4.380;2023-02-28T01:17:20;2.30;99.90
18807;DHT22;9531;52.030;4.380;2023-02-28T01:19:53;-0.20;99.90
18807;DHT22;9531;52.030;4.380;2023-02-28T01:22:20;2.60;99.90
18807;DHT22;9531;52.030;4.380;2023-02-28T01:24:54;2.10;99.90
18807;DHT22;9531;52.030;4.380;2023-02-28T01:27:22;2.30;99.90
18807;DHT22;9531;52.030;4.380;2023-02-28T01:29:50;4.40;99.90
18807;DHT22;9531;52.030;4.380;2023-02-28T01:32:21;1.60;99.90
18807;DHT22;9531;52.030;4.380;2023-02-28T01:34:49;0.40;99.90
18807;DHT22;9531;52.030;4.380;2023-02-28T01:37:16;2.70;99.90
18807;DHT22;9531;52.030;4.380;2023-02-28T01:39:43;2.30;99.90
18807;DHT22;9531;52.030;4.380;2023-02-28T01:42:13;1.60;99.90
18807;DHT22;9531;52.030;4.380;2023-02-28T01:44:59;2.70;99.90
18807;DHT22;9531;52.030;4.380;2023-02-28T01:47:29;0.10;99.90
18807;DHT22;9531;52.030;4.380;2023-02-28T01:49:59;2.70;99.90
18807;DHT22;9531;52.030;4.380;2023-02-28T01:52:28;2.70;99.90
18807;DHT22;9531;52.030;4.380;2023-02-28T01:54:57;3.40;99.90
18807;DHT22;9531;52.030;4.380;2023-02-28T01:57:29;0.80;99.90
18807;DHT22;9531;52.030;4.380;2023-02-28T02:00:03;2.80;99.90
18807;DHT22;9531;52.030;4.380;2023-02-28T02:02:33;3.60;99.90
18807;DHT22;9531;52.030;4.380;2023-02-28T02:05:05;2.80;99.90
18807;DHT22;9531;52.030;4.380;2023-02-28T02:07:35;3.60;99.90
18807;DHT22;9531;52.030;4.380;2023-02-28T02:10:06;5.00;99.90
18807;DHT22;9531;52.030;4.380;2023-02-28T02:12:46;2.80;99.90
18807;DHT22;9531;52.030;4.380;2023-02-28T02:15:23;0.70;99.90
18807;DHT22;9531;52.030;4.380;2023-02-28T02:17:56;2.40;99.90
18807;DHT22;9531;52.030;4.380;2023-02-28T02:23:50;4.50;99.90
18807;DHT22;9531;52.030;4.380;2023-02-28T02:30:00;2.50;99.90
18807;DHT22;9531;52.030;4.380;2023-02-28T02:33:03;2.90;99.90
18807;DHT22;9531;52.030;4.380;2023-02-28T02:35:39;2.30;99.90
18807;DHT22;9531;52.030;4.380;2023-02-28T02:38:10;3.00;99.90
18807;DHT22;9531;52.030;4.380;2023-02-28T02:40:44;2.90;99.90
18807;DHT22;9531;52.030;4.380;2023-02-28T02:43:18;3.00;99.90
18807;DHT22;9531;52.030;4.380;2023-02-28T02:45:51;2.70;99.90
18807;DHT22;9531;52.030;4.380;2023-02-28T02:48:21;4.80;99.90
18807;DHT22;9531;52.030;4.380;2023-02-28T02:50:55;3.00;99.90
18807;DHT22;9531;52.030;4.380;2023-02-28T02:53:27;3.00;99.90
18807;DHT22;9531;52.030;4.380;2023-02-28T02:56:00;3.00;99.90
18807;DHT22;9531;52.030;4.380;2023-02-28T02:58:30;3.00;99.90
18807;DHT22;9531;52.030;4.380;2023-02-28T03:01:01;3.00;99.90
18807;DHT22;9531;52.030;4.380;2023-02-28T03:03:29;3.80;99.90
18807;DHT22;9531;52.030;4.380;2023-02-28T03:06:01;2.20;99.90
18807;DHT22;9531;52.030;4.380;2023-02-28T03:08:33;3.70;99.90
18807;DHT22;9531;52.030;4.380;2023-02-28T03:11:02;2.80;99.90
18807;DHT22;9531;52.030;4.380;2023-02-28T03:13:45;3.10;99.90
18807;DHT22;9531;52.030;4.380;2023-02-28T03:16:36;3.10;99.90
18807;DHT22;9531;52.030;4.380;2023-02-28T03:19:26;3.10;99.90
18807;DHT22;9531;52.030;4.380;2023-02-28T03:22:07;1.50;99.90
18807;DHT22;9531;52.030;4.380;2023-02-28T03:24:41;2.80;99.90
18807;DHT22;9531;52.030;4.380;2023-02-28T03:27:15;3.10;99.90
18807;DHT22;9531;52.030;4.380;2023-02-28T03:29:47;2.70;99.90
18807;DHT22;9531;52.030;4.380;2023-02-28T03:32:21;5.30;99.90
18807;DHT22;9531;52.030;4.380;2023-02-28T03:34:55;3.60;99.90
18807;DHT22;9531;52.030;4.380;2023-02-28T03:37:25;3.20;99.90
18807;DHT22;9531;52.030;4.380;2023-02-28T03:39:58;3.10;99.90
18807;DHT22;9531;52.030;4.380;2023-02-28T03:42:30;5.20;99.90
18807;DHT22;9531;52.030;4.380;2023-02-28T03:45:00;5.10;99.90
18807;DHT22;9531;52.030;4.380;2023-02-28T03:47:32;3.20;99.90
18807;DHT22;9531;52.030;4.380;2023-02-28T03:50:03;3.20;99.90
18807;DHT22;9531;52.030;4.380;2023-02-28T03:52:35;3.20;99.90
18807;DHT22;9531;52.030;4.380;2023-02-28T03:55:07;2.80;99.90
18807;DHT22;9531;52.030;4.380;2023-02-28T03:57:40;3.80;99.90
18807;DHT22;9531;52.030;4.380;2023-02-28T04:00:14;3.20;99.90
18807;DHT22;9531;52.030;4.380;2023-02-28T04:02:43;2.80;99.90
18807;DHT22;9531;52.030;4.380;2023-02-28T04:05:11;2.60;99.90
18807;DHT22;9531;52.030;4.380;2023-02-28T04:07:40;3.30;99.90
18807;DHT22;9531;52.030;4.380;2023-02-28T04:10:08;2.70;99.90
18807;DHT22;9531;52.030;4.380;2023-02-28T04:12:35;3.00;99.90
18807;DHT22;9531;52.030;4.380;2023-02-28T04:15:04;3.00;99.90
18807;DHT22;9531;52.030;4.380;2023-02-28T04:17:32;4.20;99.90
18807;DHT22;9531;52.030;4.380;2023-02-28T04:19:59;3.70;99.90
18807;DHT22;9531;52.030;4.380;2023-02-28T04:22:26;3.30;99.90
18807;DHT22;9531;52.030;4.380;2023-02-28T04:25:01;1.80;99.90
18807;DHT22;9531;52.030;4.380;2023-02-28T04:27:29;2.10;99.90
18807;DHT22;9531;52.030;4.380;2023-02-28T04:29:57;3.00;99.90
18807;DHT22;9531;52.030;4.380;2023-02-28T04:32:24;3.40;99.90
18807;DHT22;9531;52.030;4.380;2023-02-28T04:34:51;3.30;99.90
18807;DHT22;9531;52.030;4.380;2023-02-28T04:37:17;2.90;99.90
18807;DHT22;9531;52.030;4.380;2023-02-28T04:39:44;2.90;99.90
18807;DHT22;9531;52.030;4.380;2023-02-28T04:42:14;1.90;99.90
18807;DHT22;9531;52.030;4.380;2023-02-28T04:44:41;3.10;99.90
18807;DHT22;9531;52.030;4.380;2023-02-28T04:47:08;3.00;99.90
18807;DHT22;9531;52.030;4.380;2023-02-28T04:49:36;3.40;99.90
18807;DHT22;9531;52.030;4.380;2023-02-28T04:52:05;2.00;99.90
18807;DHT22;9531;52.030;4.380;2023-02-28T04:54:36;2.80;99.90
18807;DHT22;9531;52.030;4.380;2023-02-28T04:57:04;3.40;99.90
18807;DHT22;9531;52.030;4.380;2023-02-28T04:59:33;3.10;99.90
18807;DHT22;9531;52.030;4.380;2023-02-28T05:02:00;3.50;99.90
18807;DHT22;9531;52.030;4.380;2023-02-28T05:04:32;1.90;99.90
18807;DHT22;9531;52.030;4.380;2023-02-28T05:07:00;2.90;99.90
18807;DHT22;9531;52.030;4.380;2023-02-28T05:09:27;3.50;99.90
18807;DHT22;9531;52.030;4.380;2023-02-28T05:11:55;3.50;99.90
18807;DHT22;9531;52.030;4.380;2023-02-28T05:14:22;1.10;99.90
18807;DHT22;9531;52.030;4.380;2023-02-28T05:16:51;3.10;99.90
18807;DHT22;9531;52.030;4.380;2023-02-28T05:19:18;5.10;99.90
18807;DHT22;9531;52.030;4.380;2023-02-28T05:21:51;3.50;99.90
18807;DHT22;9531;52.030;4.380;2023-02-28T05:24:20;3.50;99.90
18807;DHT22;9531;52.030;4.380;2023-02-28T05:26:49;2.30;99.90
18807;DHT22;9531;52.030;4.380;2023-02-28T05:29:17;3.50;99.90
18807;DHT22;9531;52.030;4.380;2023-02-28T05:34:15;3.10;99.90
18807;DHT22;9531;52.030;4.380;2023-02-28T05:36:42;1.20;99.90
18807;DHT22;9531;52.030;4.380;2023-02-28T05:39:11;3.90;99.90
18807;DHT22;9531;52.030;4.380;2023-02-28T05:41:40;2.00;99.90
18807;DHT22;9531;52.030;4.380;2023-02-28T05:44:13;4.00;99.90
18807;DHT22;9531;52.030;4.380;2023-02-28T05:46:40;3.20;99.90
18807;DHT22;9531;52.030;4.380;2023-02-28T05:49:09;3.50;99.90
18807;DHT22;9531;52.030;4.380;2023-02-28T05:51:38;3.50;99.90
18807;DHT22;9531;52.030;4.380;2023-02-28T05:54:07;1.50;99.90
18807;DHT22;9531;52.030;4.380;2023-02-28T05:56:34;3.50;99.90
18807;DHT22;9531;52.030;4.380;2023-02-28T05:59:03;1.80;99.90
18807;DHT22;9531;52.030;4.380;2023-02-28T06:01:33;1.80;99.90
18807;DHT22;9531;52.030;4.380;2023-02-28T06:04:01;0.90;99.90
18807;DHT22;9531;52.030;4.380;2023-02-28T06:06:29;3.50;99.90
18807;DHT22;9531;52.030;4.380;2023-02-28T06:08:57;4.00;99.90
18807;DHT22;9531;52.030;4.380;2023-02-28T06:11:24;4.00;99.90
18807;DHT22;9531;52.030;4.380;2023-02-28T06:13:54;2.10;99.90
18807;DHT22;9531;52.030;4.380;2023-02-28T06:16:22;2.30;99.90
18807;DHT22;9531;52.030;4.380;2023-02-28T06:18:49;3.20;99.90
18807;DHT22;9531;52.030;4.380;2023-02-28T06:21:16;3.10;99.90
18807;DHT22;9531;52.030;4.380;2023-02-28T06:23:43;3.20;99.90
18807;DHT22;9531;52.030;4.380;2023-02-28T06:26:15;3.40;99.90
18807;DHT22;9531;52.030;4.380;2023-02-28T06:31:13;3.50;99.90
18807;DHT22;9531;52.030;4.380;2023-02-28T06:33:42;3.50;99.90
18807;DHT22;9531;52.030;4.380;2023-02-28T06:36:10;2.50;99.90
18807;DHT22;9531;52.030;4.380;2023-02-28T06:38:38;4.00;99.90
18807;DHT22;9531;52.030;4.380;2023-02-28T06:41:05;3.50;99.90
18807;DHT22;9531;52.030;4.380;2023-02-28T06:43:35;4.90;99.90
18807;DHT22;9531;52.030;4.380;2023-02-28T06:46:06;1.50;99.90
18807;DHT22;9531;52.030;4.380;2023-02-28T06:48:34;3.70;99.90
18807;DHT22;9531;52.030;4.380;2023-02-28T06:51:06;2.10;99.90
18807;DHT22;9531;52.030;4.380;2023-02-28T06:53:34;2.30;99.90
18807;DHT22;9531;52.030;4.380;2023-02-28T06:56:04;2.10;99.90
18807;DHT22;9531;52.030;4.380;2023-02-28T06:58:34;3.50;99.90
18807;DHT22;9531;52.030;4.380;2023-02-28T07:01:02;3.50;99.90
18807;DHT22;9531;52.030;4.380;2023-02-28T07:03:31;3.50;99.90
18807;DHT22;9531;52.030;4.380;2023-02-28T07:05:59;2.30;99.90
18807;DHT22;9531;52.030;4.380;2023-02-28T07:08:26;4.00;99.90
18807;DHT22;9531;52.030;4.380;2023-02-28T07:10:54;3.90;99.90
18807;DHT22;9531;52.030;4.380;2023-02-28T07:13:22;2.70;99.90
18807;DHT22;9531;52.030;4.380;2023-02-28T07:15:58;3.80;99.90
18807;DHT22;9531;52.030;4.380;2023-02-28T07:18:26;2.20;99.90
18807;DHT22;9531;52.030;4.380;2023-02-28T07:20:53;3.50;99.90
18807;DHT22;9531;52.030;4.380;2023-02-28T07:23:21;5.00;99.90
18807;DHT22;9531;52.030;4.380;2023-02-28T07:25:49;3.40;99.90
18807;DHT22;9531;52.030;4.380;2023-02-28T07:28:16;3.00;99.90
18807;DHT22;9531;52.030;4.380;2023-02-28T07:30:43;3.10;99.90
18807;DHT22;9531;52.030;4.380;2023-02-28T07:33:11;3.40;99.90
18807;DHT22;9531;52.030;4.380;2023-02-28T07:35:39;2.90;99.90
18807;DHT22;9531;52.030;4.380;2023-02-28T07:38:06;3.00;99.90
18807;DHT22;9531;52.030;4.380;2023-02-28T07:40:34;3.40;99.90
18807;DHT22;9531;52.030;4.380;2023-02-28T07:45:29;3.40;99.90
18807;DHT22;9531;52.030;4.380;2023-02-28T07:47:57;3.40;99.90
18807;DHT22;9531;52.030;4.380;2023-02-28T07:50:26;4.90;99.90
18807;DHT22;9531;52.030;4.380;2023-02-28T07:52:57;3.00;99.90
18807;DHT22;9531;52.030;4.380;2023-02-28T07:55:24;3.30;99.90
18807;DHT22;9531;52.030;4.380;2023-02-28T07:57:52;3.30;99.90
18807;DHT22;9531;52.030;4.380;2023-02-28T08:00:20;2.30;99.90
18807;DHT22;9531;52.030;4.380;2023-02-28T08:02:48;3.60;99.90
18807;DHT22;9531;52.030;4.380;2023-02-28T08:05:16;3.20;99.90
18807;DHT22;9531;52.030;4.380;2023-02-28T08:07:45;3.00;99.90
18807;DHT22;9531;52.030;4.380;2023-02-28T08:10:13;2.90;99.90
18807;DHT22;9531;52.030;4.380;2023-02-28T08:12:40;3.40;99.90
18807;DHT22;9531;52.030;4.380;2023-02-28T08:15:11;3.00;99.90
18807;DHT22;9531;52.030;4.380;2023-02-28T08:17:38;3.10;99.90
18807;DHT22;9531;52.030;4.380;2023-02-28T08:20:07;4.70;99.90
18807;DHT22;9531;52.030;4.380;2023-02-28T08:22:34;4.60;99.90
18807;DHT22;9531;52.030;4.380;2023-02-28T08:25:03;3.70;99.90
18807;DHT22;9531;52.030;4.380;2023-02-28T08:27:31;3.10;99.90
18807;DHT22;9531;52.030;4.380;2023-02-28T08:30:00;1.50;99.90
18807;DHT22;9531;52.030;4.380;2023-02-28T08:32:28;4.80;99.90
18807;DHT22;9531;52.030;4.380;2023-02-28T08:34:55;1.40;99.90
18807;DHT22;9531;52.030;4.380;2023-02-28T08:37:22;3.00;99.90
18807;DHT22;9531;52.030;4.380;2023-02-28T08:39:50;4.50;99.90
18807;DHT22;9531;52.030;4.380;2023-02-28T08:42:20;2.80;99.90
18807;DHT22;9531;52.030;4.380;2023-02-28T08:44:47;2.70;99.90
18807;DHT22;9531;52.030;4.380;2023-02-28T08:47:14;3.50;99.90
18807;DHT22;9531;52.030;4.380;2023-02-28T08:49:41;3.00;99.90
18807;DHT22;9531;52.030;4.380;2023-02-28T08:52:08;3.00;99.90
18807;DHT22;9531;52.030;4.380;2023-02-28T08:54:36;3.40;99.90
18807;DHT22;9531;52.030;4.380;2023-02-28T08:57:06;4.60;99.90
18807;DHT22;9531;52.030;4.380;2023-02-28T08:59:34;4.50;99.90
18807;DHT22;9531;52.030;4.380;2023-02-28T09:02:01;3.00;99.90
18807;DHT22;9531;52.030;4.380;2023-02-28T09:04:28;3.00;99.90
18807;DHT22;9531;52.030;4.380;2023-02-28T09:06:57;2.50;99.90
18807;DHT22;9531;52.030;4.380;2023-02-28T09:09:24;3.60;99.90
18807;DHT22;9531;52.030;4.380;2023-02-28T09:11:51;2.20;99.90
18807;DHT22;9531;52.030;4.380;2023-02-28T09:14:21;2.90;99.90
18807;DHT22;9531;52.030;4.380;2023-02-28T09:16:51;2.20;99.90
18807;DHT22;9531;52.030;4.380;2023-02-28T09:19:18;3.50;99.90
18807;DHT22;9531;52.030;4.380;2023-02-28T09:21:45;5.30;99.90
18807;DHT22;9531;52.030;4.380;2023-02-28T09:24:13;2.70;99.90
18807;DHT22;9531;52.030;4.380;2023-02-28T09:26:41;2.70;99.90
18807;DHT22;9531;52.030;4.380;2023-02-28T09:29:08;3.60;99.90
18807;DHT22;9531;52.030;4.380;2023-02-28T09:31:35;1.60;99.90
18807;DHT22;9531;52.030;4.380;2023-02-28T09:34:04;1.10;99.90
18807;DHT22;9531;52.030;4.380;2023-02-28T09:36:31;2.80;99.90
18807;DHT22;9531;52.030;4.380;2023-02-28T09:38:59;3.30;99.90
18807;DHT22;9531;52.030;4.380;2023-02-28T09:41:27;3.00;99.90
18807;DHT22;9531;52.030;4.380;2023-02-28T09:44:02;4.90;99.90
18807;DHT22;9531;52.030;4.380;2023-02-28T09:46:33;4.90;99.90
18807;DHT22;9531;52.030;4.380;2023-02-28T09:49:06;3.50;99.90
18807;DHT22;9531;52.030;4.380;2023-02-28T09:51:43;1.80;99.90
18807;DHT22;9531;52.030;4.380;2023-02-28T09:54:16;5.30;99.90
18807;DHT22;9531;52.030;4.380;2023-02-28T09:56:45;3.10;99.90
18807;DHT22;9531;52.030;4.380;2023-02-28T09:59:21;3.30;99.90
18807;DHT22;9531;52.030;4.380;2023-02-28T10:01:56;4.00;99.90
18807;DHT22;9531;52.030;4.380;2023-02-28T10:04:37;5.50;99.90
18807;DHT22;9531;52.030;4.380;2023-02-28T10:07:16;3.80;99.90
18807;DHT22;9531;52.030;4.380;2023-02-28T10:09:48;3.80;99.90
18807;DHT22;9531;52.030;4.380;2023-02-28T10:12:20;3.60;99.90
18807;DHT22;9531;52.030;4.380;2023-02-28T10:14:50;3.80;99.90
18807;DHT22;9531;52.030;4.380;2023-02-28T10:17:23;4.60;99.90
18807;DHT22;9531;52.030;4.380;2023-02-28T10:19:59;3.70;99.90
18807;DHT22;9531;52.030;4.380;2023-02-28T10:22:35;2.70;99.90
18807;DHT22;9531;52.030;4.380;2023-02-28T10:25:17;4.30;99.90
18807;DHT22;9531;52.030;4.380;2023-02-28T10:27:44;5.80;99.90
18807;DHT22;9531;52.030;4.380;2023-02-28T10:30:12;4.20;99.90
18807;DHT22;9531;52.030;4.380;2023-02-28T10:32:40;5.20;99.90
18807;DHT22;9531;52.030;4.380;2023-02-28T10:35:17;4.50;99.90
18807;DHT22;9531;52.030;4.380;2023-02-28T10:37:47;4.60;99.90
18807;DHT22;9531;52.030;4.380;2023-02-28T10:40:29;4.50;99.90
18807;DHT22;9531;52.030;4.380;2023-02-28T10:42:58;5.60;99.90
18807;DHT22;9531;52.030;4.380;2023-02-28T10:45:29;4.50;99.90
18807;DHT22;9531;52.030;4.380;2023-02-28T10:47:59;5.00;99.90
18807;DHT22;9531;52.030;4.380;2023-02-28T10:50:32;5.10;99.90
18807;DHT22;9531;52.030;4.380;2023-02-28T10:53:24;7.00;99.90
18807;DHT22;9531;52.030;4.380;2023-02-28T10:56:00;4.00;99.90
18807;DHT22;9531;52.030;4.380;2023-02-28T10:58:30;5.00;99.90
18807;DHT22;9531;52.030;4.380;2023-02-28T11:00:59;4.60;99.90
18807;DHT22;9531;52.030;4.380;2023-02-28T11:03:32;3.20;99.90
18807;DHT22;9531;52.030;4.380;2023-02-28T11:06:15;5.10;99.90
18807;DHT22;9531;52.030;4.380;2023-02-28T11:08:47;5.80;99.90
18807;DHT22;9531;52.030;4.380;2023-02-28T11:11:17;4.90;99.90
18807;DHT22;9531;52.030;4.380;2023-02-28T11:13:46;4.70;99.90
18807;DHT22;9531;52.030;4.380;2023-02-28T11:16:15;5.70;99.90
18807;DHT22;9531;52.030;4.380;2023-02-28T11:18:47;5.20;99.90
18807;DHT22;9531;52.030;4.380;2023-02-28T11:21:26;8.00;99.90
18807;DHT22;9531;52.030;4.380;2023-02-28T11:24:00;5.70;99.90
18807;DHT22;9531;52.030;4.380;2023-02-28T11:26:37;8.30;99.90
18807;DHT22;9531;52.030;4.380;2023-02-28T11:29:11;7.70;99.90
18807;DHT22;9531;52.030;4.380;2023-02-28T11:31:39;9.90;99.90
18807;DHT22;9531;52.030;4.380;2023-02-28T11:34:24;8.00;99.90
18807;DHT22;9531;52.030;4.380;2023-02-28T11:36:54;10.30;99.90
18807;DHT22;9531;52.030;4.380;2023-02-28T11:39:23;9.30;99.90
18807;DHT22;9531;52.030;4.380;2023-02-28T11:42:08;12.20;99.90
18807;DHT22;9531;52.030;4.380;2023-02-28T11:44:48;13.10;99.90
18807;DHT22;9531;52.030;4.380;2023-02-28T11:47:32;13.00;99.90
18807;DHT22;9531;52.030;4.380;2023-02-28T11:50:12;10.50;99.90
18807;DHT22;9531;52.030;4.380;2023-02-28T11:52:50;14.70;99.90
18807;DHT22;9531;52.030;4.380;2023-02-28T11:55:23;12.00;99.90
18807;DHT22;9531;52.030;4.380;2023-02-28T11:58:11;12.20;99.90
18807;DHT22;9531;52.030;4.380;2023-02-28T12:00:55;15.30;99.90
18807;DHT22;9531;52.030;4.380;2023-02-28T12:03:30;11.30;99.90
18807;DHT22;9531;52.030;4.380;2023-02-28T12:06:06;15.60;99.90
18807;DHT22;9531;52.030;4.380;2023-02-28T12:08:49;13.30;99.90
18807;DHT22;9531;52.030;4.380;2023-02-28T12:11:30;13.60;99.90
18807;DHT22;9531;52.030;4.380;2023-02-28T12:17:10;12.30;99.90
18807;DHT22;9531;52.030;4.380;2023-02-28T12:19:45;14.10;99.90
18807;DHT22;9531;52.030;4.380;2023-02-28T12:22:28;13.70;99.90
18807;DHT22;9531;52.030;4.380;2023-02-28T12:25:21;16.50;99.90
18807;DHT22;9531;52.030;4.380;2023-02-28T12:27:54;16.70;99.90
18807;DHT22;9531;52.030;4.380;2023-02-28T12:30:24;13.10;99.90
18807;DHT22;9531;52.030;4.380;2023-02-28T12:32:58;14.30;99.90
18807;DHT22;9531;52.030;4.380;2023-02-28T12:35:32;14.00;99.90
18807;DHT22;9531;52.030;4.380;2023-02-28T12:38:05;13.70;99.90
18807;DHT22;9531;52.030;4.380;2023-02-28T12:40:42;13.60;99.90
18807;DHT22;9531;52.030;4.380;2023-02-28T12:43:13;13.10;99.90
18807;DHT22;9531;52.030;4.380;2023-02-28T12:45:48;11.70;99.90
18807;DHT22;9531;52.030;4.380;2023-02-28T12:48:21;13.00;99.90
18807;DHT22;9531;52.030;4.380;2023-02-28T12:50:53;13.30;99.90
18807;DHT22;9531;52.030;4.380;2023-02-28T12:53:27;13.00;99.90
18807;DHT22;9531;52.030;4.380;2023-02-28T12:56:07;13.50;99.90
18807;DHT22;9531;52.030;4.380;2023-02-28T12:58:39;13.80;99.90
18807;DHT22;9531;52.030;4.380;2023-02-28T13:01:33;12.70;99.90
18807;DHT22;9531;52.030;4.380;2023-02-28T13:07:49;16.40;99.90
18807;DHT22;9531;52.030;4.380;2023-02-28T13:10:21;13.90;99.90
18807;DHT22;9531;52.030;4.380;2023-02-28T13:12:53;17.10;99.90
18807;DHT22;9531;52.030;4.380;2023-02-28T13:15:24;15.50;99.90
18807;DHT22;9531;52.030;4.380;2023-02-28T13:17:55;15.70;99.90
18807;DHT22;9531;52.030;4.380;2023-02-28T13:20:24;13.90;99.90
18807;DHT22;9531;52.030;4.380;2023-02-28T13:22:53;15.00;99.90
18807;DHT22;9531;52.030;4.380;2023-02-28T13:34:41;15.20;99.90
18807;DHT22;9531;52.030;4.380;2023-02-28T13:37:32;18.20;99.90
18807;DHT22;9531;52.030;4.380;2023-02-28T13:40:26;17.60;99.90
18807;DHT22;9531;52.030;4.380;2023-02-28T13:42:55;16.30;99.90
18807;DHT22;9531;52.030;4.380;2023-02-28T13:45:26;17.90;99.90
18807;DHT22;9531;52.030;4.380;2023-02-28T13:47:58;16.30;99.90
18807;DHT22;9531;52.030;4.380;2023-02-28T13:50:33;16.40;99.90
18807;DHT22;9531;52.030;4.380;2023-02-28T13:53:27;16.50;99.90
18807;DHT22;9531;52.030;4.380;2023-02-28T13:56:03;16.50;99.90
18807;DHT22;9531;52.030;4.380;2023-02-28T13:58:41;18.00;99.90
18807;DHT22;9531;52.030;4.380;2023-02-28T14:04:45;16.80;99.90
18807;DHT22;9531;52.030;4.380;2023-02-28T14:07:22;15.80;99.90
18807;DHT22;9531;52.030;4.380;2023-02-28T14:09:56;17.10;99.90
18807;DHT22;9531;52.030;4.380;2023-02-28T14:15:49;15.30;99.90
18807;DHT22;9531;52.030;4.380;2023-02-28T14:18:24;18.60;99.90
18807;DHT22;9531;52.030;4.380;2023-02-28T14:20:55;18.90;99.90
18807;DHT22;9531;52.030;4.380;2023-02-28T14:26:55;19.30;99.90
18807;DHT22;9531;52.030;4.380;2023-02-28T14:29:38;17.60;99.90
18807;DHT22;9531;52.030;4.380;2023-02-28T14:32:14;16.00;99.90
18807;DHT22;9531;52.030;4.380;2023-02-28T14:34:54;16.60;99.90
18807;DHT22;9531;52.030;4.380;2023-02-28T14:37:27;18.80;99.90
18807;DHT22;9531;52.030;4.380;2023-02-28T14:39:56;18.90;99.90
18807;DHT22;9531;52.030;4.380;2023-02-28T14:42:30;17.60;99.90
18807;DHT22;9531;52.030;4.380;2023-02-28T14:44:58;14.90;99.90
18807;DHT22;9531;52.030;4.380;2023-02-28T14:47:35;16.50;99.90
18807;DHT22;9531;52.030;4.380;2023-02-28T14:50:06;18.30;99.90
18807;DHT22;9531;52.030;4.380;2023-02-28T14:52:35;18.10;99.90
18807;DHT22;9531;52.030;4.380;2023-02-28T14:55:04;17.60;99.90
18807;DHT22;9531;52.030;4.380;2023-02-28T14:57:39;17.70;99.90
18807;DHT22;9531;52.030;4.380;2023-02-28T15:00:13;13.30;99.90
18807;DHT22;9531;52.030;4.380;2023-02-28T15:02:41;15.80;99.90
18807;DHT22;9531;52.030;4.380;2023-02-28T15:05:30;14.50;99.90
18807;DHT22;9531;52.030;4.380;2023-02-28T15:08:06;12.50;99.90
18807;DHT22;9531;52.030;4.380;2023-02-28T15:10:37;16.40;99.90
18807;DHT22;9531;52.030;4.380;2023-02-28T15:13:12;16.30;99.90
18807;DHT22;9531;52.030;4.380;2023-02-28T15:15:46;13.90;99.90
18807;DHT22;9531;52.030;4.380;2023-02-28T15:18:22;14.20;99.90
18807;DHT22;9531;52.030;4.380;2023-02-28T15:20:51;13.90;99.90
18807;DHT22;9531;52.030;4.380;2023-02-28T15:23:21;12.70;99.90
18807;DHT22;9531;52.030;4.380;2023-02-28T15:25:49;12.40;99.90
18807;DHT22;9531;52.030;4.380;2023-02-28T15:28:20;14.10;99.90
18807;DHT22;9531;52.030;4.380;2023-02-28T15:30:55;12.60;99.90
18807;DHT22;9531;52.030;4.380;2023-02-28T15:33:24;11.80;99.90
18807;DHT22;9531;52.030;4.380;2023-02-28T15:36:09;11.60;99.90
18807;DHT22;9531;52.030;4.380;2023-02-28T15:38:38;14.40;99.90
18807;DHT22;9531;52.030;4.380;2023-02-28T15:41:05;14.70;99.90
18807;DHT22;9531;52.030;4.380;2023-02-28T15:43:36;11.40;99.90
18807;DHT22;9531;52.030;4.380;2023-02-28T15:46:06;12.60;99.90
18807;DHT22;9531;52.030;4.380;2023-02-28T15:48:35;13.10;99.90
18807;DHT22;9531;52.030;4.380;2023-02-28T15:51:08;12.80;99.90
18807;DHT22;9531;52.030;4.380;2023-02-28T15:53:37;12.70;99.90
18807;DHT22;9531;52.030;4.380;2023-02-28T15:56:20;12.80;99.90
18807;DHT22;9531;52.030;4.380;2023-02-28T15:58:50;12.50;99.90
18807;DHT22;9531;52.030;4.380;2023-02-28T16:01:24;11.90;99.90
18807;DHT22;9531;52.030;4.380;2023-02-28T16:03:55;11.90;99.90
18807;DHT22;9531;52.030;4.380;2023-02-28T16:06:33;13.40;99.90
18807;DHT22;9531;52.030;4.380;2023-02-28T16:09:04;13.50;99.90
18807;DHT22;9531;52.030;4.380;2023-02-28T16:11:34;13.20;99.90
18807;DHT22;9531;52.030;4.380;2023-02-28T16:14:04;11.70;99.90
18807;DHT22;9531;52.030;4.380;2023-02-28T16:16:32;11.20;99.90
18807;DHT22;9531;52.030;4.380;2023-02-28T16:19:00;12.70;99.90
18807;DHT22;9531;52.030;4.380;2023-02-28T16:21:27;9.60;99.90
18807;DHT22;9531;52.030;4.380;2023-02-28T16:23:54;9.90;99.90
18807;DHT22;9531;52.030;4.380;2023-02-28T16:26:23;12.70;99.90
18807;DHT22;9531;52.030;4.380;2023-02-28T16:28:55;8.90;99.90
18807;DHT22;9531;52.030;4.380;2023-02-28T16:31:23;12.20;99.90
18807;DHT22;9531;52.030;4.380;2023-02-28T16:33:50;10.60;99.90
18807;DHT22;9531;52.030;4.380;2023-02-28T16:36:20;11.10;99.90
18807;DHT22;9531;52.030;4.380;2023-02-28T16:38:48;9.20;99.90
18807;DHT22;9531;52.030;4.380;2023-02-28T16:41:19;10.40;99.90
18807;DHT22;9531;52.030;4.380;2023-02-28T16:43:48;8.50;99.90
18807;DHT22;9531;52.030;4.380;2023-02-28T16:46:16;8.40;99.90
18807;DHT22;9531;52.030;4.380;2023-02-28T16:48:45;10.10;99.90
18807;DHT22;9531;52.030;4.380;2023-02-28T16:51:16;7.80;99.90
18807;DHT22;9531;52.030;4.380;2023-02-28T16:53:44;11.20;99.90
18807;DHT22;9531;52.030;4.380;2023-02-28T16:56:16;7.50;99.90
18807;DHT22;9531;52.030;4.380;2023-02-28T16:58:44;11.40;99.90
18807;DHT22;9531;52.030;4.380;2023-02-28T17:01:12;10.10;99.90
18807;DHT22;9531;52.030;4.380;2023-02-28T17:03:39;7.80;99.90